sensor_id;sensor_type;location;lat;lon;timestamp;P1;durP1;ratioP1;P2;durP2;ratioP2
12048;SDS011;6085;49.452;8.502;2023-02-28T00:01:59;1.90;;;1.75;;
12048;SDS011;6085;49.452;8.502;2023-02-28T00:06:01;1.75;;;1.65;;
12048;SDS011;6085;49.452;8.502;2023-02-28T00:10:03;1.67;;;1.58;;
12048;SDS011;6085;49.452;8.502;2023-02-28T00:14:07;1.63;;;1.52;;
12048;SDS011;6085;49.452;8.502;2023-02-28T00:18:10;1.60;;;1.50;;
12048;SDS011;6085;49.452;8.502;2023-02-28T00:22:13;1.35;;;1.33;;
12048;SDS011;6085;49.452;8.502;2023-02-28T00:26:15;1.70;;;1.60;;
12048;SDS011;6085;49.452;8.502;2023-02-28T00:30:17;2.15;;;1.40;;
12048;SDS011;6085;49.452;8.502;2023-02-28T00:34:21;2.20;;;1.55;;
12048;SDS011;6085;49.452;8.502;2023-02-28T00:38:23;1.80;;;1.70;;
12048;SDS011;6085;49.452;8.502;2023-02-28T00:42:25;1.92;;;1.83;;
12048;SDS011;6085;49.452;8.502;2023-02-28T00:46:27;2.28;;;1.80;;
12048;SDS011;6085;49.452;8.502;2023-02-28T00:50:30;1.67;;;1.55;;
12048;SDS011;6085;49.452;8.502;2023-02-28T00:54:32;1.88;;;1.70;;
12048;SDS011;6085;49.452;8.502;2023-02-28T00:58:34;1.65;;;1.55;;
12048;SDS011;6085;49.452;8.502;2023-02-28T01:02:36;1.90;;;1.65;;
12048;SDS011;6085;49.452;8.502;2023-02-28T01:06:39;2.00;;;1.90;;
12048;SDS011;6085;49.452;8.502;2023-02-28T01:10:42;2.50;;;1.80;;
12048;SDS011;6085;49.452;8.502;2023-02-28T01:14:44;2.42;;;1.95;;
12048;SDS011;6085;49.452;8.502;2023-02-28T01:18:45;2.88;;;2.00;;
12048;SDS011;6085;49.452;8.502;2023-02-28T01:22:48;2.00;;;1.90;;
12048;SDS011;6085;49.452;8.502;2023-02-28T01:26:50;2.20;;;2.00;;
12048;SDS011;6085;49.452;8.502;2023-02-28T01:30:52;3.05;;;2.10;;
12048;SDS011;6085;49.452;8.502;2023-02-28T01:34:54;2.17;;;1.98;;
12048;SDS011;6085;49.452;8.502;2023-02-28T01:38:57;2.35;;;2.13;;
12048;SDS011;6085;49.452;8.502;2023-02-28T01:42:59;2.25;;;2.05;;
12048;SDS011;6085;49.452;8.502;2023-02-28T01:47:01;2.20;;;2.00;;
12048;SDS011;6085;49.452;8.502;2023-02-28T01:51:03;2.47;;;2.28;;
12048;SDS011;6085;49.452;8.502;2023-02-28T01:55:11;2.20;;;2.05;;
12048;SDS011;6085;49.452;8.502;2023-02-28T01:59:17;2.50;;;2.30;;
12048;SDS011;6085;49.452;8.502;2023-02-28T02:03:25;2.28;;;2.13;;
12048;SDS011;6085;49.452;8.502;2023-02-28T02:07:28;2.75;;;2.25;;
12048;SDS011;6085;49.452;8.502;2023-02-28T02:11:34;3.10;;;2.55;;
12048;SDS011;6085;49.452;8.502;2023-02-28T02:15:39;2.17;;;2.08;;
12048;SDS011;6085;49.452;8.502;2023-02-28T02:24:42;2.90;;;2.63;;
12048;SDS011;6085;49.452;8.502;2023-02-28T02:29:06;3.05;;;2.58;;
12048;SDS011;6085;49.452;8.502;2023-02-28T02:38:19;2.83;;;2.55;;
12048;SDS011;6085;49.452;8.502;2023-02-28T02:42:31;2.88;;;2.67;;
12048;SDS011;6085;49.452;8.502;2023-02-28T02:46:41;3.78;;;3.28;;
12048;SDS011;6085;49.452;8.502;2023-02-28T02:50:46;4.28;;;3.10;;
12048;SDS011;6085;49.452;8.502;2023-02-28T02:54:52;4.35;;;3.08;;
12048;SDS011;6085;49.452;8.502;2023-02-28T02:58:59;4.47;;;3.65;;
12048;SDS011;6085;49.452;8.502;2023-02-28T03:03:04;3.80;;;3.10;;
12048;SDS011;6085;49.452;8.502;2023-02-28T03:07:07;5.90;;;3.17;;
12048;SDS011;6085;49.452;8.502;2023-02-28T03:11:13;2.75;;;2.55;;
12048;SDS011;6085;49.452;8.502;2023-02-28T03:15:17;2.90;;;2.70;;
12048;SDS011;6085;49.452;8.502;2023-02-28T03:19:29;3.30;;;2.88;;
12048;SDS011;6085;49.452;8.502;2023-02-28T03:23:48;3.20;;;2.90;;
12048;SDS011;6085;49.452;8.502;2023-02-28T03:28:02;3.83;;;3.00;;
12048;SDS011;6085;49.452;8.502;2023-02-28T03:32:11;4.53;;;3.47;;
12048;SDS011;6085;49.452;8.502;2023-02-28T03:36:22;3.45;;;3.15;;
12048;SDS011;6085;49.452;8.502;2023-02-28T03:40:27;4.28;;;3.25;;
12048;SDS011;6085;49.452;8.502;2023-02-28T03:44:34;3.55;;;3.25;;
12048;SDS011;6085;49.452;8.502;2023-02-28T03:48:40;3.67;;;3.38;;
12048;SDS011;6085;49.452;8.502;2023-02-28T03:52:46;3.92;;;3.10;;
12048;SDS011;6085;49.452;8.502;2023-02-28T03:56:51;3.05;;;2.85;;
12048;SDS011;6085;49.452;8.502;2023-02-28T04:01:01;3.28;;;2.97;;
12048;SDS011;6085;49.452;8.502;2023-02-28T04:05:08;3.58;;;3.28;;
12048;SDS011;6085;49.452;8.502;2023-02-28T04:09:10;3.88;;;3.05;;
12048;SDS011;6085;49.452;8.502;2023-02-28T04:13:14;3.63;;;3.33;;
12048;SDS011;6085;49.452;8.502;2023-02-28T04:17:17;4.35;;;3.50;;
12048;SDS011;6085;49.452;8.502;2023-02-28T04:21:19;3.92;;;3.47;;
12048;SDS011;6085;49.452;8.502;2023-02-28T04:25:22;4.45;;;3.25;;
12048;SDS011;6085;49.452;8.502;2023-02-28T04:29:25;3.85;;;3.28;;
12048;SDS011;6085;49.452;8.502;2023-02-28T04:33:29;3.95;;;3.53;;
12048;SDS011;6085;49.452;8.502;2023-02-28T04:37:32;4.53;;;3.30;;
12048;SDS011;6085;49.452;8.502;2023-02-28T04:41:34;4.45;;;3.78;;
12048;SDS011;6085;49.452;8.502;2023-02-28T04:45:36;4.60;;;3.72;;
12048;SDS011;6085;49.452;8.502;2023-02-28T04:49:39;5.10;;;3.22;;
12048;SDS011;6085;49.452;8.502;2023-02-28T04:53:42;4.07;;;3.05;;
12048;SDS011;6085;49.452;8.502;2023-02-28T04:57:44;3.47;;;3.17;;
12048;SDS011;6085;49.452;8.502;2023-02-28T05:01:47;3.80;;;3.17;;
12048;SDS011;6085;49.452;8.502;2023-02-28T05:05:50;3.78;;;3.33;;
12048;SDS011;6085;49.452;8.502;2023-02-28T05:09:52;3.30;;;3.00;;
12048;SDS011;6085;49.452;8.502;2023-02-28T05:13:54;3.80;;;3.33;;
12048;SDS011;6085;49.452;8.502;2023-02-28T05:17:56;3.58;;;3.28;;
12048;SDS011;6085;49.452;8.502;2023-02-28T05:22:00;4.18;;;3.47;;
12048;SDS011;6085;49.452;8.502;2023-02-28T05:26:02;4.78;;;3.55;;
12048;SDS011;6085;49.452;8.502;2023-02-28T05:30:05;4.20;;;3.65;;
12048;SDS011;6085;49.452;8.502;2023-02-28T05:34:10;5.30;;;2.95;;
12048;SDS011;6085;49.452;8.502;2023-02-28T05:38:14;3.47;;;3.05;;
12048;SDS011;6085;49.452;8.502;2023-02-28T05:42:16;3.47;;;3.17;;
12048;SDS011;6085;49.452;8.502;2023-02-28T05:46:18;5.10;;;3.22;;
12048;SDS011;6085;49.452;8.502;2023-02-28T05:50:19;4.20;;;3.50;;
12048;SDS011;6085;49.452;8.502;2023-02-28T05:54:22;5.63;;;3.22;;
12048;SDS011;6085;49.452;8.502;2023-02-28T05:58:24;3.60;;;3.28;;
12048;SDS011;6085;49.452;8.502;2023-02-28T06:02:30;3.45;;;3.15;;
12048;SDS011;6085;49.452;8.502;2023-02-28T06:06:32;3.58;;;3.25;;
12048;SDS011;6085;49.452;8.502;2023-02-28T06:10:37;3.92;;;3.30;;
12048;SDS011;6085;49.452;8.502;2023-02-28T06:14:39;3.67;;;2.90;;
12048;SDS011;6085;49.452;8.502;2023-02-28T06:18:40;3.40;;;3.10;;
12048;SDS011;6085;49.452;8.502;2023-02-28T06:22:42;4.72;;;3.80;;
12048;SDS011;6085;49.452;8.502;2023-02-28T06:26:45;4.22;;;3.83;;
12048;SDS011;6085;49.452;8.502;2023-02-28T06:30:47;7.25;;;3.55;;
12048;SDS011;6085;49.452;8.502;2023-02-28T06:34:49;3.90;;;3.58;;
12048;SDS011;6085;49.452;8.502;2023-02-28T06:38:51;6.97;;;3.60;;
12048;SDS011;6085;49.452;8.502;2023-02-28T06:42:56;3.97;;;3.50;;
12048;SDS011;6085;49.452;8.502;2023-02-28T06:46:58;4.00;;;3.50;;
12048;SDS011;6085;49.452;8.502;2023-02-28T06:51:04;4.32;;;3.20;;
12048;SDS011;6085;49.452;8.502;2023-02-28T06:55:07;4.97;;;3.60;;
12048;SDS011;6085;49.452;8.502;2023-02-28T06:59:11;3.60;;;3.25;;
12048;SDS011;6085;49.452;8.502;2023-02-28T07:03:13;3.65;;;3.25;;
12048;SDS011;6085;49.452;8.502;2023-02-28T07:07:15;5.68;;;3.70;;
12048;SDS011;6085;49.452;8.502;2023-02-28T07:11:17;3.63;;;3.33;;
12048;SDS011;6085;49.452;8.502;2023-02-28T07:15:21;4.30;;;3.85;;
12048;SDS011;6085;49.452;8.502;2023-02-28T07:19:22;3.88;;;3.47;;
12048;SDS011;6085;49.452;8.502;2023-02-28T07:23:25;4.63;;;4.15;;
12048;SDS011;6085;49.452;8.502;2023-02-28T07:27:28;4.90;;;3.70;;
12048;SDS011;6085;49.452;8.502;2023-02-28T07:31:31;4.13;;;3.67;;
12048;SDS011;6085;49.452;8.502;2023-02-28T07:35:34;7.10;;;4.03;;
12048;SDS011;6085;49.452;8.502;2023-02-28T07:39:36;5.57;;;4.30;;
12048;SDS011;6085;49.452;8.502;2023-02-28T07:43:38;5.70;;;3.95;;
12048;SDS011;6085;49.452;8.502;2023-02-28T07:47:41;4.03;;;3.58;;
12048;SDS011;6085;49.452;8.502;2023-02-28T07:51:44;4.32;;;3.92;;
12048;SDS011;6085;49.452;8.502;2023-02-28T07:55:46;4.75;;;4.00;;
12048;SDS011;6085;49.452;8.502;2023-02-28T07:59:48;5.78;;;3.72;;
12048;SDS011;6085;49.452;8.502;2023-02-28T08:03:51;4.28;;;3.88;;
12048;SDS011;6085;49.452;8.502;2023-02-28T08:07:54;4.82;;;3.97;;
12048;SDS011;6085;49.452;8.502;2023-02-28T08:11:56;4.57;;;3.75;;
12048;SDS011;6085;49.452;8.502;2023-02-28T08:16:00;4.40;;;4.00;;
12048;SDS011;6085;49.452;8.502;2023-02-28T08:20:05;4.22;;;3.83;;
12048;SDS011;6085;49.452;8.502;2023-02-28T08:24:09;4.75;;;3.88;;
12048;SDS011;6085;49.452;8.502;2023-02-28T08:28:10;4.95;;;3.88;;
12048;SDS011;6085;49.452;8.502;2023-02-28T08:32:13;4.32;;;3.80;;
12048;SDS011;6085;49.452;8.502;2023-02-28T08:36:16;12.88;;;4.28;;
12048;SDS011;6085;49.452;8.502;2023-02-28T08:40:18;4.55;;;3.58;;
12048;SDS011;6085;49.452;8.502;2023-02-28T08:44:19;4.78;;;3.80;;
12048;SDS011;6085;49.452;8.502;2023-02-28T08:48:21;4.20;;;3.67;;
12048;SDS011;6085;49.452;8.502;2023-02-28T08:52:25;3.72;;;3.42;;
12048;SDS011;6085;49.452;8.502;2023-02-28T08:56:27;4.15;;;3.78;;
12048;SDS011;6085;49.452;8.502;2023-02-28T09:00:29;5.15;;;3.95;;
12048;SDS011;6085;49.452;8.502;2023-02-28T09:04:33;3.95;;;3.65;;
12048;SDS011;6085;49.452;8.502;2023-02-28T09:08:36;6.05;;;4.13;;
12048;SDS011;6085;49.452;8.502;2023-02-28T09:12:38;13.93;;;4.30;;
12048;SDS011;6085;49.452;8.502;2023-02-28T09:16:40;3.88;;;3.58;;
12048;SDS011;6085;49.452;8.502;2023-02-28T09:20:42;4.20;;;3.42;;
12048;SDS011;6085;49.452;8.502;2023-02-28T09:24:46;4.20;;;3.80;;
12048;SDS011;6085;49.452;8.502;2023-02-28T09:28:48;3.75;;;3.45;;
12048;SDS011;6085;49.452;8.502;2023-02-28T09:32:50;4.05;;;3.75;;
12048;SDS011;6085;49.452;8.502;2023-02-28T09:36:53;4.38;;;3.80;;
12048;SDS011;6085;49.452;8.502;2023-02-28T09:40:58;4.35;;;3.95;;
12048;SDS011;6085;49.452;8.502;2023-02-28T09:45:02;4.53;;;3.72;;
12048;SDS011;6085;49.452;8.502;2023-02-28T09:49:12;3.75;;;3.30;;
12048;SDS011;6085;49.452;8.502;2023-02-28T09:53:19;5.15;;;4.05;;
12048;SDS011;6085;49.452;8.502;2023-02-28T09:57:32;10.45;;;4.93;;
12048;SDS011;6085;49.452;8.502;2023-02-28T10:01:40;4.35;;;3.90;;
12048;SDS011;6085;49.452;8.502;2023-02-28T10:05:50;19.00;;;5.60;;
12048;SDS011;6085;49.452;8.502;2023-02-28T10:09:56;5.70;;;3.95;;
12048;SDS011;6085;49.452;8.502;2023-02-28T10:14:06;5.47;;;4.00;;
12048;SDS011;6085;49.452;8.502;2023-02-28T10:18:15;4.95;;;4.25;;
12048;SDS011;6085;49.452;8.502;2023-02-28T10:22:22;4.55;;;4.00;;
12048;SDS011;6085;49.452;8.502;2023-02-28T10:26:27;4.50;;;4.10;;
12048;SDS011;6085;49.452;8.502;2023-02-28T10:30:33;4.00;;;3.60;;
12048;SDS011;6085;49.452;8.502;2023-02-28T10:34:36;3.92;;;3.63;;
12048;SDS011;6085;49.452;8.502;2023-02-28T10:38:38;4.95;;;3.85;;
12048;SDS011;6085;49.452;8.502;2023-02-28T10:42:40;4.32;;;3.92;;
12048;SDS011;6085;49.452;8.502;2023-02-28T10:46:43;4.15;;;3.75;;
12048;SDS011;6085;49.452;8.502;2023-02-28T10:50:50;5.50;;;3.90;;
12048;SDS011;6085;49.452;8.502;2023-02-28T10:54:57;4.78;;;4.13;;
12048;SDS011;6085;49.452;8.502;2023-02-28T10:59:26;5.88;;;4.20;;
12048;SDS011;6085;49.452;8.502;2023-02-28T11:03:32;4.68;;;4.10;;
12048;SDS011;6085;49.452;8.502;2023-02-28T11:07:36;4.63;;;4.20;;
12048;SDS011;6085;49.452;8.502;2023-02-28T11:11:41;5.88;;;4.55;;
12048;SDS011;6085;49.452;8.502;2023-02-28T11:15:49;5.20;;;4.70;;
12048;SDS011;6085;49.452;8.502;2023-02-28T11:19:55;5.30;;;4.60;;
12048;SDS011;6085;49.452;8.502;2023-02-28T11:24:00;5.50;;;4.65;;
12048;SDS011;6085;49.452;8.502;2023-02-28T11:28:05;5.10;;;4.10;;
12048;SDS011;6085;49.452;8.502;2023-02-28T11:32:24;6.50;;;4.35;;
12048;SDS011;6085;49.452;8.502;2023-02-28T11:36:31;6.25;;;4.75;;
12048;SDS011;6085;49.452;8.502;2023-02-28T11:40:36;4.50;;;3.95;;
12048;SDS011;6085;49.452;8.502;2023-02-28T11:44:51;4.07;;;3.75;;
12048;SDS011;6085;49.452;8.502;2023-02-28T11:49:06;5.40;;;4.68;;
12048;SDS011;6085;49.452;8.502;2023-02-28T11:53:27;6.38;;;4.85;;
12048;SDS011;6085;49.452;8.502;2023-02-28T11:58:17;5.25;;;4.75;;
12048;SDS011;6085;49.452;8.502;2023-02-28T12:02:44;5.97;;;4.60;;
12048;SDS011;6085;49.452;8.502;2023-02-28T12:07:00;6.68;;;4.97;;
12048;SDS011;6085;49.452;8.502;2023-02-28T12:11:13;9.77;;;4.60;;
12048;SDS011;6085;49.452;8.502;2023-02-28T12:19:57;6.38;;;4.85;;
12048;SDS011;6085;49.452;8.502;2023-02-28T12:24:25;7.47;;;4.63;;
12048;SDS011;6085;49.452;8.502;2023-02-28T12:28:50;6.32;;;4.25;;
12048;SDS011;6085;49.452;8.502;2023-02-28T12:32:55;4.63;;;4.22;;
12048;SDS011;6085;49.452;8.502;2023-02-28T12:37:03;5.32;;;4.80;;
12048;SDS011;6085;49.452;8.502;2023-02-28T12:41:10;4.93;;;4.47;;
12048;SDS011;6085;49.452;8.502;2023-02-28T12:45:18;5.43;;;4.63;;
12048;SDS011;6085;49.452;8.502;2023-02-28T12:49:21;5.82;;;5.22;;
12048;SDS011;6085;49.452;8.502;2023-02-28T12:53:33;5.13;;;4.63;;
12048;SDS011;6085;49.452;8.502;2023-02-28T12:57:43;5.72;;;4.43;;
12048;SDS011;6085;49.452;8.502;2023-02-28T13:02:00;5.05;;;4.53;;
12048;SDS011;6085;49.452;8.502;2023-02-28T13:06:20;5.35;;;4.85;;
12048;SDS011;6085;49.452;8.502;2023-02-28T13:10:42;5.32;;;4.82;;
12048;SDS011;6085;49.452;8.502;2023-02-28T13:14:46;5.20;;;4.80;;
12048;SDS011;6085;49.452;8.502;2023-02-28T13:18:50;5.72;;;4.70;;
12048;SDS011;6085;49.452;8.502;2023-02-28T13:22:53;6.07;;;5.05;;
12048;SDS011;6085;49.452;8.502;2023-02-28T13:31:27;5.40;;;4.90;;
12048;SDS011;6085;49.452;8.502;2023-02-28T13:39:48;6.10;;;5.00;;
12048;SDS011;6085;49.452;8.502;2023-02-28T13:44:00;5.85;;;5.25;;
12048;SDS011;6085;49.452;8.502;2023-02-28T13:48:04;6.38;;;5.75;;
12048;SDS011;6085;49.452;8.502;2023-02-28T13:52:19;6.25;;;5.50;;
12048;SDS011;6085;49.452;8.502;2023-02-28T13:56:30;5.93;;;5.32;;
12048;SDS011;6085;49.452;8.502;2023-02-28T14:00:51;72.75;;;14.63;;
12048;SDS011;6085;49.452;8.502;2023-02-28T14:05:06;8.85;;;5.15;;
12048;SDS011;6085;49.452;8.502;2023-02-28T14:09:19;7.53;;;5.32;;
12048;SDS011;6085;49.452;8.502;2023-02-28T14:13:38;6.88;;;5.60;;
12048;SDS011;6085;49.452;8.502;2023-02-28T14:17:44;5.82;;;5.32;;
12048;SDS011;6085;49.452;8.502;2023-02-28T14:21:50;6.28;;;5.68;;
12048;SDS011;6085;49.452;8.502;2023-02-28T14:26:06;7.13;;;5.40;;
12048;SDS011;6085;49.452;8.502;2023-02-28T14:30:37;6.72;;;5.95;;
12048;SDS011;6085;49.452;8.502;2023-02-28T14:34:50;5.50;;;5.00;;
12048;SDS011;6085;49.452;8.502;2023-02-28T14:38:57;5.55;;;5.05;;
12048;SDS011;6085;49.452;8.502;2023-02-28T14:43:03;5.93;;;5.43;;
12048;SDS011;6085;49.452;8.502;2023-02-28T14:47:11;6.75;;;5.13;;
12048;SDS011;6085;49.452;8.502;2023-02-28T14:51:20;6.00;;;5.38;;
12048;SDS011;6085;49.452;8.502;2023-02-28T14:55:24;5.88;;;5.20;;
12048;SDS011;6085;49.452;8.502;2023-02-28T14:59:31;6.57;;;5.60;;
12048;SDS011;6085;49.452;8.502;2023-02-28T15:03:34;6.10;;;5.30;;
12048;SDS011;6085;49.452;8.502;2023-02-28T15:07:37;6.03;;;5.43;;
12048;SDS011;6085;49.452;8.502;2023-02-28T15:11:40;5.38;;;4.82;;
12048;SDS011;6085;49.452;8.502;2023-02-28T15:15:49;5.47;;;5.03;;
12048;SDS011;6085;49.452;8.502;2023-02-28T15:19:56;5.78;;;5.28;;
12048;SDS011;6085;49.452;8.502;2023-02-28T15:23:59;6.28;;;5.68;;
12048;SDS011;6085;49.452;8.502;2023-02-28T15:28:05;5.88;;;5.35;;
12048;SDS011;6085;49.452;8.502;2023-02-28T15:32:23;6.35;;;5.75;;
12048;SDS011;6085;49.452;8.502;2023-02-28T15:36:29;6.22;;;5.40;;
12048;SDS011;6085;49.452;8.502;2023-02-28T15:40:35;5.65;;;4.97;;
12048;SDS011;6085;49.452;8.502;2023-02-28T15:44:38;6.05;;;5.45;;
12048;SDS011;6085;49.452;8.502;2023-02-28T15:48:44;6.03;;;5.40;;
12048;SDS011;6085;49.452;8.502;2023-02-28T15:52:52;7.03;;;6.13;;
12048;SDS011;6085;49.452;8.502;2023-02-28T15:56:54;5.90;;;5.30;;
12048;SDS011;6085;49.452;8.502;2023-02-28T16:01:04;6.07;;;5.47;;
12048;SDS011;6085;49.452;8.502;2023-02-28T16:05:21;5.85;;;5.15;;
12048;SDS011;6085;49.452;8.502;2023-02-28T16:09:30;6.28;;;5.28;;
12048;SDS011;6085;49.452;8.502;2023-02-28T16:13:32;6.45;;;5.60;;
12048;SDS011;6085;49.452;8.502;2023-02-28T16:17:35;6.20;;;5.20;;
12048;SDS011;6085;49.452;8.502;2023-02-28T16:21:41;6.70;;;5.90;;
12048;SDS011;6085;49.452;8.502;2023-02-28T16:25:43;6.10;;;5.15;;
12048;SDS011;6085;49.452;8.502;2023-02-28T16:29:47;5.85;;;5.25;;
12048;SDS011;6085;49.452;8.502;2023-02-28T16:33:49;6.13;;;5.45;;
12048;SDS011;6085;49.452;8.502;2023-02-28T16:37:52;6.30;;;5.25;;
12048;SDS011;6085;49.452;8.502;2023-02-28T16:41:55;6.15;;;5.28;;
12048;SDS011;6085;49.452;8.502;2023-02-28T16:45:57;5.60;;;4.72;;
12048;SDS011;6085;49.452;8.502;2023-02-28T16:50:01;6.63;;;5.20;;
12048;SDS011;6085;49.452;8.502;2023-02-28T16:54:07;6.15;;;5.47;;
12048;SDS011;6085;49.452;8.502;2023-02-28T16:58:11;7.30;;;5.68;;
12048;SDS011;6085;49.452;8.502;2023-02-28T17:02:16;7.70;;;5.80;;
12048;SDS011;6085;49.452;8.502;2023-02-28T17:06:21;8.63;;;5.82;;
12048;SDS011;6085;49.452;8.502;2023-02-28T17:10:26;6.15;;;5.35;;
12048;SDS011;6085;49.452;8.502;2023-02-28T17:14:28;8.00;;;5.85;;
12048;SDS011;6085;49.452;8.502;2023-02-28T17:18:29;5.70;;;5.10;;
12048;SDS011;6085;49.452;8.502;2023-02-28T17:22:33;6.28;;;5.40;;
12048;SDS011;6085;49.452;8.502;2023-02-28T17:26:36;6.55;;;5.63;;
12048;SDS011;6085;49.452;8.502;2023-02-28T17:30:39;10.57;;;6.20;;
12048;SDS011;6085;49.452;8.502;2023-02-28T17:34:46;7.82;;;5.68;;
12048;SDS011;6085;49.452;8.502;2023-02-28T17:38:48;6.32;;;5.47;;
12048;SDS011;6085;49.452;8.502;2023-02-28T17:42:52;8.18;;;6.03;;
12048;SDS011;6085;49.452;8.502;2023-02-28T17:46:55;5.75;;;5.20;;
12048;SDS011;6085;49.452;8.502;2023-02-28T17:50:57;6.47;;;5.63;;
12048;SDS011;6085;49.452;8.502;2023-02-28T17:54:59;6.82;;;5.60;;
12048;SDS011;6085;49.452;8.502;2023-02-28T17:59:02;6.32;;;5.50;;
12048;SDS011;6085;49.452;8.502;2023-02-28T18:03:04;5.93;;;4.80;;
12048;SDS011;6085;49.452;8.502;2023-02-28T18:07:06;8.27;;;6.10;;
12048;SDS011;6085;49.452;8.502;2023-02-28T18:11:10;8.00;;;5.60;;
12048;SDS011;6085;49.452;8.502;2023-02-28T18:15:19;6.60;;;5.70;;
12048;SDS011;6085;49.452;8.502;2023-02-28T18:19:22;9.68;;;5.90;;
12048;SDS011;6085;49.452;8.502;2023-02-28T18:23:24;7.05;;;5.45;;
12048;SDS011;6085;49.452;8.502;2023-02-28T18:27:26;8.40;;;5.95;;
12048;SDS011;6085;49.452;8.502;2023-02-28T18:31:29;7.40;;;5.78;;
12048;SDS011;6085;49.452;8.502;2023-02-28T18:35:32;7.45;;;5.70;;
12048;SDS011;6085;49.452;8.502;2023-02-28T18:39:36;7.35;;;6.35;;
12048;SDS011;6085;49.452;8.502;2023-02-28T18:43:38;9.63;;;7.13;;
12048;SDS011;6085;49.452;8.502;2023-02-28T18:47:41;9.32;;;7.95;;
12048;SDS011;6085;49.452;8.502;2023-02-28T18:51:43;7.88;;;6.88;;
12048;SDS011;6085;49.452;8.502;2023-02-28T18:55:45;7.38;;;6.65;;
12048;SDS011;6085;49.452;8.502;2023-02-28T18:59:47;9.63;;;7.85;;
12048;SDS011;6085;49.452;8.502;2023-02-28T19:03:50;8.65;;;7.78;;
12048;SDS011;6085;49.452;8.502;2023-02-28T19:07:52;9.13;;;6.57;;
12048;SDS011;6085;49.452;8.502;2023-02-28T19:11:54;7.80;;;6.20;;
12048;SDS011;6085;49.452;8.502;2023-02-28T19:15:59;7.50;;;5.88;;
12048;SDS011;6085;49.452;8.502;2023-02-28T19:20:03;8.25;;;5.65;;
12048;SDS011;6085;49.452;8.502;2023-02-28T19:24:05;8.63;;;6.43;;
12048;SDS011;6085;49.452;8.502;2023-02-28T19:28:07;7.70;;;6.32;;
12048;SDS011;6085;49.452;8.502;2023-02-28T19:32:09;6.57;;;5.90;;
12048;SDS011;6085;49.452;8.502;2023-02-28T19:36:13;7.47;;;5.78;;
12048;SDS011;6085;49.452;8.502;2023-02-28T19:40:16;6.50;;;5.50;;
12048;SDS011;6085;49.452;8.502;2023-02-28T19:44:18;7.35;;;5.70;;
12048;SDS011;6085;49.452;8.502;2023-02-28T19:48:19;8.10;;;5.65;;
12048;SDS011;6085;49.452;8.502;2023-02-28T19:52:25;7.80;;;5.78;;
12048;SDS011;6085;49.452;8.502;2023-02-28T19:56:27;9.43;;;6.70;;
12048;SDS011;6085;49.452;8.502;2023-02-28T20:00:29;11.15;;;7.32;;
12048;SDS011;6085;49.452;8.502;2023-02-28T20:04:31;9.85;;;6.78;;
12048;SDS011;6085;49.452;8.502;2023-02-28T20:08:34;10.50;;;7.13;;
12048;SDS011;6085;49.452;8.502;2023-02-28T20:12:36;10.32;;;7.57;;
12048;SDS011;6085;49.452;8.502;2023-02-28T20:16:38;9.65;;;7.30;;
12048;SDS011;6085;49.452;8.502;2023-02-28T20:20:40;8.52;;;6.35;;
12048;SDS011;6085;49.452;8.502;2023-02-28T20:24:43;8.40;;;5.97;;
12048;SDS011;6085;49.452;8.502;2023-02-28T20:28:46;6.60;;;5.88;;
12048;SDS011;6085;49.452;8.502;2023-02-28T20:32:48;7.43;;;5.85;;
12048;SDS011;6085;49.452;8.502;2023-02-28T20:36:50;8.75;;;6.45;;
12048;SDS011;6085;49.452;8.502;2023-02-28T20:40:54;9.95;;;6.70;;
12048;SDS011;6085;49.452;8.502;2023-02-28T20:44:56;6.78;;;6.05;;
12048;SDS011;6085;49.452;8.502;2023-02-28T20:48:58;7.45;;;5.90;;
12048;SDS011;6085;49.452;8.502;2023-02-28T20:52:59;6.25;;;5.65;;
12048;SDS011;6085;49.452;8.502;2023-02-28T20:57:03;9.43;;;6.55;;
12048;SDS011;6085;49.452;8.502;2023-02-28T21:01:05;7.72;;;5.95;;
12048;SDS011;6085;49.452;8.502;2023-02-28T21:05:11;8.50;;;6.18;;
12048;SDS011;6085;49.452;8.502;2023-02-28T21:09:14;7.05;;;6.00;;
12048;SDS011;6085;49.452;8.502;2023-02-28T21:13:17;6.43;;;5.80;;
12048;SDS011;6085;49.452;8.502;2023-02-28T21:17:19;7.47;;;5.88;;
12048;SDS011;6085;49.452;8.502;2023-02-28T21:21:22;7.85;;;5.78;;
12048;SDS011;6085;49.452;8.502;2023-02-28T21:25:24;7.57;;;5.65;;
12048;SDS011;6085;49.452;8.502;2023-02-28T21:29:28;6.97;;;5.45;;
12048;SDS011;6085;49.452;8.502;2023-02-28T21:33:29;9.75;;;6.15;;
12048;SDS011;6085;49.452;8.502;2023-02-28T21:37:32;8.98;;;6.25;;
12048;SDS011;6085;49.452;8.502;2023-02-28T21:41:34;7.80;;;6.22;;
12048;SDS011;6085;49.452;8.502;2023-02-28T21:45:38;8.15;;;5.90;;
12048;SDS011;6085;49.452;8.502;2023-02-28T21:49:39;7.93;;;6.13;;
12048;SDS011;6085;49.452;8.502;2023-02-28T21:53:41;7.72;;;6.45;;
12048;SDS011;6085;49.452;8.502;2023-02-28T21:57:44;9.30;;;6.57;;
12048;SDS011;6085;49.452;8.502;2023-02-28T22:01:47;8.13;;;6.72;;
12048;SDS011;6085;49.452;8.502;2023-02-28T22:05:50;8.65;;;6.55;;
12048;SDS011;6085;49.452;8.502;2023-02-28T22:09:52;6.95;;;6.25;;
12048;SDS011;6085;49.452;8.502;2023-02-28T22:13:54;8.50;;;6.57;;
12048;SDS011;6085;49.452;8.502;2023-02-28T22:17:58;7.78;;;5.90;;
12048;SDS011;6085;49.452;8.502;2023-02-28T22:22:00;7.22;;;5.30;;
12048;SDS011;6085;49.452;8.502;2023-02-28T22:26:03;7.13;;;5.85;;
12048;SDS011;6085;49.452;8.502;2023-02-28T22:30:07;7.15;;;6.18;;
12048;SDS011;6085;49.452;8.502;2023-02-28T22:34:11;8.10;;;6.10;;
12048;SDS011;6085;49.452;8.502;2023-02-28T22:38:14;9.02;;;7.05;;
12048;SDS011;6085;49.452;8.502;2023-02-28T22:42:16;7.32;;;5.70;;
12048;SDS011;6085;49.452;8.502;2023-02-28T22:46:17;8.35;;;5.60;;
12048;SDS011;6085;49.452;8.502;2023-02-28T22:50:21;6.65;;;5.75;;
12048;SDS011;6085;49.452;8.502;2023-02-28T22:54:23;9.82;;;7.00;;
12048;SDS011;6085;49.452;8.502;2023-02-28T22:58:25;7.78;;;6.93;;
12048;SDS011;6085;49.452;8.502;2023-02-28T23:02:27;8.55;;;6.53;;
12048;SDS011;6085;49.452;8.502;2023-02-28T23:06:31;9.32;;;6.97;;
12048;SDS011;6085;49.452;8.502;2023-02-28T23:10:33;9.60;;;6.78;;
12048;SDS011;6085;49.452;8.502;2023-02-28T23:14:35;8.68;;;6.95;;
12048;SDS011;6085;49.452;8.502;2023-02-28T23:18:37;8.15;;;6.65;;
12048;SDS011;6085;49.452;8.502;2023-02-28T23:22:40;9.80;;;6.60;;
12048;SDS011;6085;49.452;8.502;2023-02-28T23:26:46;7.97;;;6.20;;
12048;SDS011;6085;49.452;8.502;2023-02-28T23:30:49;9.95;;;6.85;;
12048;SDS011;6085;49.452;8.502;2023-02-28T23:34:51;11.02;;;6.65;;
12048;SDS011;6085;49.452;8.502;2023-02-28T23:38:55;11.73;;;6.88;;
12048;SDS011;6085;49.452;8.502;2023-02-28T23:42:58;9.80;;;6.40;;
12048;SDS011;6085;49.452;8.502;2023-02-28T23:46:59;8.20;;;6.13;;
12048;SDS011;6085;49.452;8.502;2023-02-28T23:51:02;9.15;;;6.88;;
12048;SDS011;6085;49.452;8.502;2023-02-28T23:55:09;7.07;;;5.93;;
12048;SDS011;6085;49.452;8.502;2023-02-28T23:59:11;7.60;;;6.22;;
